• Join FlightAware (Why Join?)
  • Login
  • US Flag 
04:52AM EDT


 

Airport Tracker/Info


-or-


 

Live Flight TrackerFlight Track Log ✈ SKW6258 ✈ 21-Apr-2012 ✈ KSFO - CYYC

Flight Track Log - Related Links

Times and Time Zones

All times are in EDT time to prevent confusion due to time zone crossing. See the SKW6258 flight status page for this flight to view local times or setup timezone preferences in your user account.

Time Position Orientation Groundspeed Altitude Reporting Facility
EDT Latitude Longitude Course Direction KTS MPH feet Rate Location/Type
11:35AM 37.6296 -122.3409 North  Level FlightAware Approximate
11:36AM 37.7054 -122.2279 256° West  Level FlightAware Approximate
11:37AM 37.6842 -122.3356 48° Northeast 209 241 3,900  Level Oakland Center
11:38AM 37.7333 -122.2667 North 294 338 6,500 2,340 Climbing Northern Cal TRACON
11:40AM 37.8728 -122.2600 10° North 314 361 11,000 2,160 Climbing Oakland Center
11:41AM 37.9606 -122.2406 18° North 309 356 12,800 1,800 Climbing Oakland Center
11:42AM 38.0528 -122.2025 15° North 323 372 14,600 1,740 Climbing Oakland Center
11:43AM 38.1553 -122.1672 20° North 344 396 16,300 2,100 Climbing Oakland Center
11:44AM 38.2494 -122.1239 17° North 357 411 18,800 2,100 Climbing Oakland Center
11:45AM 38.3522 -122.0831 17° North 371 427 20,600 1,680 Climbing Oakland Center
11:46AM 38.4608 -122.0397 18° North 390 449 22,200 1,620 Climbing Oakland Center
11:47AM 38.5719 -121.9933 17° North 402 463 23,900 1,500 Climbing Oakland Center
11:48AM 38.6869 -121.9472 18° North 413 475 25,300 1,380 Climbing Oakland Center
11:49AM 38.8022 -121.8981 18° North 425 489 26,700 1,500 Climbing Oakland Center
11:50AM 38.9214 -121.8489 17° North 435 501 28,300 1,620 Climbing Oakland Center
11:51AM 39.0406 -121.8022 19° North 440 506 30,000 1,560 Climbing Oakland Center
11:52AM 39.1578 -121.7500 19° North 440 506 31,500 1,260 Climbing Oakland Center
11:53AM 39.2728 -121.7003 18° North 440 506 32,600 1,020 Climbing Oakland Center
11:54AM 39.3878 -121.6506 21° North 440 506 33,600 660 Climbing Oakland Center
11:55AM 39.5028 -121.5922 18° North 445 512 34,000 180 Climbing Oakland Center
11:56AM 39.6197 -121.5422 18° North 440 506 34,000  Level Oakland Center
11:57AM 39.7367 -121.4917 18° North 435 501 34,000  Level Oakland Center
11:58AM 39.8556 -121.4414 18° North 435 501 34,000  Level Oakland Center
11:59AM 39.9725 -121.3906 18° North 440 506 34,000  Level Oakland Center
12:00PM 40.0917 -121.3397 19° North 445 512 34,000  Level Oakland Center
12:01PM 40.2064 -121.2886 18° North 445 512 34,000  Level Oakland Center
12:02PM 40.3211 -121.2403 18° North 445 512 34,000  Level Oakland Center
12:03PM 40.4825 -121.1717 18° North 439 505 34,000  Level Seattle Center
12:04PM 40.5983 -121.1214 20° North 440 506 34,000  Level Seattle Center
12:05PM 40.7125 -121.0678 19° North 439 505 34,000  Level Seattle Center
12:06PM 40.8297 -121.0147 19° North 442 509 34,000  Level Seattle Center
12:07PM 40.9442 -120.9639 18° North 444 511 34,000  Level Seattle Center
12:08PM 41.0594 -120.9128 19° North 441 507 34,000  Level Seattle Center
12:09PM 41.1772 -120.8597 18° North 443 510 34,000  Level Seattle Center
12:11PM 41.2947 -120.8078 19° North 446 513 34,000  Level Seattle Center
12:12PM 41.4097 -120.7558 19° North 441 507 34,000  Level Seattle Center
12:13PM 41.5458 -120.6933 19° North 434 499 34,000  Level Seattle Center
12:14PM 41.6592 -120.6414 19° North 433 498 34,000  Level Seattle Center
12:15PM 41.7706 -120.5900 19° North 428 493 34,000  Level Seattle Center
12:16PM 41.8839 -120.5381 19° North 429 494 34,000  Level Seattle Center
12:17PM 41.9983 -120.4847 20° North 433 498 34,000  Level Seattle Center
12:18PM 42.1131 -120.4294 20° North 437 503 34,000  Level Seattle Center
12:19PM 42.2261 -120.3744 17° North 436 502 34,000  Level Seattle Center
12:20PM 42.3417 -120.3253 20° North 436 502 34,000  Level Seattle Center
12:21PM 42.4556 -120.2706 20° North 435 501 34,000  Level Seattle Center
12:22PM 42.5681 -120.2156 19° North 433 498 34,000  Level Seattle Center
12:23PM 42.7053 -120.1508 19° North 435 501 34,000  Level Seattle Center
12:24PM 42.8197 -120.0983 18° North 435 501 34,000  Level Seattle Center
12:25PM 42.9328 -120.0467 20° North 431 496 34,000  Level Seattle Center
12:26PM 43.0492 -119.9894 20° North 436 502 34,000  Level Seattle Center
12:27PM 43.1656 -119.9300 19° North 443 510 34,000  Level Seattle Center
12:28PM 43.2800 -119.8753 20° North 440 506 34,000  Level Seattle Center
12:29PM 43.3889 -119.8208 19° North 439 505 34,000  Level Seattle Center
12:30PM 43.5044 -119.7675 20° North 440 506 34,000  Level Seattle Center
12:31PM 43.6422 -119.6986 19° North 441 507 34,000  Level Seattle Center
12:32PM 43.7567 -119.6442 20° North 441 507 34,000  Level Seattle Center
12:33PM 43.8714 -119.5872 20° North 441 507 34,000  Level Seattle Center
12:34PM 43.9872 -119.5300 20° North 444 511 34,000  Level Seattle Center
12:35PM 44.1017 -119.4719 20° North 443 510 34,000  Level Seattle Center
12:36PM 44.2161 -119.4150 20° North 442 509 34,000  Level Seattle Center
12:37PM 44.3303 -119.3578 20° North 440 506 34,000  Level Seattle Center
12:38PM 44.4456 -119.3000 20° North 442 509 34,000  Level Seattle Center
12:39PM 44.5828 -119.2306 20° North 443 510 34,000  Level Seattle Center
12:40PM 44.6975 -119.1725 20° North 443 510 34,000  Level Seattle Center
12:41PM 44.8125 -119.1139 20° North 444 511 34,000  Level Seattle Center
12:42PM 44.9269 -119.0547 19° North 444 511 34,000  Level Seattle Center
12:43PM 45.0425 -118.9969 20° North 445 512 34,000  Level Seattle Center
12:44PM 45.1572 -118.9372 20° North 444 511 34,000  Level Seattle Center
12:45PM 45.2719 -118.8772 20° North 444 511 34,000  Level Seattle Center
12:46PM 45.3858 -118.8172 20° North 443 510 34,000  Level Seattle Center
12:47PM 45.5247 -118.7453 20° North 444 511 34,000  Level Seattle Center
12:48PM 45.6397 -118.6839 20° North 444 511 34,000  Level Seattle Center
12:49PM 45.7542 -118.6239 20° North 443 510 34,000  Level Seattle Center
12:50PM 45.8689 -118.5625 21° North 444 511 34,000  Level Seattle Center
12:51PM 45.9769 -118.5042 20° North 443 510 34,000  Level Seattle Center
12:52PM 46.0933 -118.4422 21° North 445 512 34,000  Level Seattle Center
12:53PM 46.2086 -118.3797 20° North 445 512 34,000  Level Seattle Center
12:54PM 46.3472 -118.3056 21° North 443 510 34,000  Level Seattle Center
12:55PM 46.4628 -118.2411 20° North 446 513 34,000  Level Seattle Center
12:56PM 46.5781 -118.1789 21° North 445 512 34,000  Level Seattle Center
12:57PM 46.6919 -118.1158 21° North 440 506 34,000  Level Seattle Center
12:58PM 46.8056 -118.0536 20° North 438 504 34,000  Level Seattle Center
12:59PM 46.9161 -117.9944 21° North 430 495 34,000  Level Seattle Center
01:00PM 47.0272 -117.9331 22° Northeast 427 491 34,000  Level Seattle Center
01:01PM 47.1378 -117.8669 22° Northeast 428 493 34,000  Level Seattle Center
01:02PM 47.2472 -117.8025 21° North 425 489 34,000  Level Seattle Center
01:03PM 47.3592 -117.7397 20° North 427 491 34,000  Level Seattle Center
01:04PM 47.4736 -117.6778 21° North 431 496 34,000  Level Seattle Center
01:05PM 47.5886 -117.6114 27° Northeast 437 503 34,000  Level Seattle Center
01:06PM 47.7000 -117.5272 27° Northeast 442 509 34,000  Level Seattle Center
01:07PM 47.8111 -117.4439 27° Northeast 443 510 34,000  Level Seattle Center
01:08PM 47.9242 -117.3597 27° Northeast 449 517 34,000  Level Seattle Center
01:10PM 48.0589 -117.2578 27° Northeast 449 517 34,000  Level Seattle Center
01:11PM 48.1681 -117.1753 27° Northeast 444 511 34,000  Level Seattle Center
01:12PM 48.2761 -117.0925 27° Northeast 439 505 34,000  Level Seattle Center
01:13PM 48.3842 -117.0103 27° Northeast 437 503 34,000  Level Seattle Center
01:14PM 48.4928 -116.9264 40° Northeast 438 504 34,000  Level Seattle Center
01:14PM 48.5667 -116.8333 29° Northeast 440 506 34,000  Level Vancouver Center
01:15PM 48.6667 -116.7500 26° Northeast 440 506 34,000  Level Vancouver Center
01:16PM 48.8000 -116.6500 28° Northeast 440 506 34,000  Level Vancouver Center
01:17PM 48.8833 -116.5833 29° Northeast 450 518 34,000  Level Vancouver Center
01:18PM 49.0000 -116.4833 25° Northeast 440 506 34,000  Level Vancouver Center
01:19PM 49.1167 -116.4000 360° North 450 518 34,000  Level Vancouver Center
01:20PM 49.1667 -116.4000 29° Northeast 440 506 34,000  Level Edmonton Center
01:21PM 49.2667 -116.3167 28° Northeast 440 506 34,000  Level Edmonton Center
01:22PM 49.3667 -116.2333 29° Northeast 440 506 34,000  Level Edmonton Center
01:23PM 49.4833 -116.1333 18° North 430 495 34,000  Level Edmonton Center
01:24PM 49.5833 -116.0833 18° North 430 495 34,000  Level Edmonton Center
01:25PM 49.7167 -116.0167 27° Northeast 420 483 34,000 -120 Level Edmonton Center
01:26PM 49.8000 -115.9500 18° North 420 483 33,800 -360 Descending Edmonton Center
01:27PM 49.9333 -115.8833 18° North 410 472 33,300 -540 Descending Edmonton Center
01:28PM 50.0333 -115.8333 15° North 420 483 32,800 -540 Descending Edmonton Center
01:29PM 50.1500 -115.7833 28° Northeast 420 483 32,300 -660 Descending Edmonton Center
01:30PM 50.2500 -115.7000 23° Northeast 410 472 31,500 -1,080 Descending Edmonton Center
01:31PM 50.3500 -115.6333 18° North 410 472 30,200 -1,680 Descending Edmonton Center
01:32PM 50.4500 -115.5833 15° North 400 460 28,200 -1,860 Descending Edmonton Center
01:33PM 50.5667 -115.5333 27° Northeast 380 437 26,500 -1,860 Descending Edmonton Center
01:34PM 50.6500 -115.4667 32° Northeast 360 414 24,500 -2,100 Descending Edmonton Center
01:35PM 50.7333 -115.3833 62° Northeast 360 414 22,300 -2,400 Descending Edmonton Center
01:36PM 50.7833 -115.2333 80° East 380 437 19,700 -2,520 Descending Edmonton Center
01:37PM 50.8000 -115.0833 72° East 370 426 17,300 -2,400 Descending Edmonton Center
01:38PM 50.8333 -114.9167 66° East 340 391 14,900 -2,520 Descending Edmonton Center
01:39PM 50.8667 -114.8000 59° Northeast 320 368 12,300 -2,400 Descending Edmonton Center
01:40PM 50.9167 -114.6667 75° East 300 345 10,200 -2,100 Descending Edmonton Center
01:41PM 50.9333 -114.5667 68° East 290 334 8,200 -1,140 Descending Edmonton Center
01:42PM 50.9667 -114.4333 52° Northeast 280 322 8,000 -360 Descending Edmonton Center
01:43PM 51.0000 -114.3667 27° Northeast 270 311 7,500 -540 Descending Edmonton Center
01:44PM 51.0833 -114.3000 17° North 270 311 7,000 -600 Descending Edmonton Center
01:45PM 51.1500 -114.2667 57° Northeast 270 311 6,300 -540 Descending Edmonton Center
01:46PM 51.1833 -114.1833 40° Northeast 240 276 6,000 -300 Descending Edmonton Center
01:47PM 51.2333 -114.1167 108° East 220 253 5,800 -420 Descending Edmonton Center
01:48PM 51.2167 -114.0333 108° East 180 207 5,200 -600 Descending Edmonton Center